Home   Weather   USA   Tularosa   Past weeks
Flag for USA

Past Weather in Tularosa, New Mexico, USA — Yesterday and Last 2 Weeks

Currently: 64 °F. Clear. (Weather station: Alamogordo-White, USA). See more current weather

Past Weather in Tularosa — Graph

°F

Tularosa Temperature Yesterday

Maximum temperature yesterday: 75 °F (at 3:55 pm)
Minimum temperature yesterday: 46 °F (at 3:55 am)
Average temperature yesterday: 62 °F

High & Low Weather Summary for the Past Weeks

 TemperatureHumidityPressure
High82 °F (Apr 12, 2:35 pm)93% (Apr 10, 2:15 am)30.24 "Hg (Apr 10, 2:15 am)
Low30 °F (Apr 10, 3:55 am)3% (Apr 15, 11:15 am)29.76 "Hg (Apr 8, 4:55 pm)
Average60 °F20%30.01 "Hg
* Reported Apr 2 7:15 pm — Apr 17 7:35 pm, Tularosa. Weather by CustomWeather, © 2024

Note: Actual official high and low records may vary slightly from our data, if they occured in-between our weather recording intervals... More about our weather records

Tularosa Weather History for the Previous 24 Hours

Scroll right to see more
 ConditionsComfort  
Time TempWeatherWind HumidityBarometerVisibility
7:35 pm
Wed, Apr 17
77 °FSunny.8 mph6%29.96 "Hg10 mi
7:15 pm81 °FSunny.12 mph5%29.96 "Hg10 mi
6:55 pm82 °FSunny.9 mph5%29.95 "Hg10 mi
6:35 pm82 °FSunny.16 mph5%29.95 "Hg10 mi
6:15 pm82 °FSunny.9 mph5%29.95 "Hg10 mi
5:55 pm82 °FSunny.5 mph5%29.95 "Hg10 mi
5:35 pm82 °FSunny.8 mph6%29.95 "Hg10 mi
5:15 pm82 °FSunny.No wind5%29.95 "Hg10 mi
4:55 pm81 °FSunny.9 mph8%29.96 "Hg10 mi
4:35 pm82 °FSunny.5 mph6%29.96 "Hg10 mi
4:15 pm82 °FSunny.10 mph6%29.97 "Hg10 mi
3:55 pm82 °FSunny.8 mph5%29.98 "Hg10 mi
3:35 pm81 °FSunny.5 mph4%29.99 "Hg10 mi
3:15 pm81 °FSunny.7 mph4%30.00 "Hg10 mi
2:35 pm81 °FSunny.5 mph3%30.01 "Hg10 mi
2:15 pm81 °FSunny.10 mph4%30.02 "Hg10 mi
1:35 pm79 °FSunny.15 mph6%30.04 "Hg10 mi
1:15 pm79 °FSunny.8 mph5%30.05 "Hg10 mi
12:55 pm79 °FSunny.6 mph7%30.06 "Hg10 mi
12:35 pm79 °FSunny.8 mph8%30.07 "Hg10 mi
12:15 pm77 °FSunny.7 mph8%30.08 "Hg10 mi
11:55 am75 °FSunny.No wind8%30.08 "Hg10 mi
11:35 am73 °FSunny.No wind8%30.09 "Hg10 mi
11:15 am73 °FSunny.3 mph9%30.10 "Hg10 mi
10:55 am72 °FSunny.6 mph9%30.10 "Hg10 mi
10:35 am70 °FSunny.5 mph9%30.10 "Hg10 mi
10:15 am70 °FSunny.7 mph12%30.10 "Hg10 mi
9:55 am68 °FSunny.7 mph11%30.10 "Hg10 mi
9:15 am64 °FSunny.8 mph14%30.09 "Hg10 mi
8:55 am63 °FSunny.6 mph14%30.09 "Hg10 mi
8:35 am61 °FSunny.3 mph15%30.09 "Hg10 mi
8:15 am59 °FSunny.5 mph13%30.09 "Hg10 mi
7:15 am48 °FSunny.5 mph18%30.07 "Hg10 mi
6:55 am48 °FSunny.5 mph18%30.07 "Hg10 mi
6:15 am48 °FPassing clouds.6 mph17%30.06 "Hg10 mi
5:55 am48 °FPartly cloudy.7 mph17%30.05 "Hg10 mi
5:35 am45 °FPassing clouds.No wind21%30.04 "Hg10 mi
4:55 am52 °FPassing clouds.No wind16%30.03 "Hg10 mi
4:35 am46 °FPassing clouds.No wind18%30.03 "Hg10 mi
4:15 am50 °FPassing clouds.No wind16%30.03 "Hg10 mi
3:55 am54 °FPassing clouds.No wind14%30.02 "Hg10 mi
3:35 am55 °FPassing clouds.3 mph14%30.01 "Hg10 mi
2:35 am52 °FPassing clouds.7 mph17%30.01 "Hg10 mi
2:15 am52 °FPassing clouds.7 mph20%30.02 "Hg10 mi
1:35 am54 °FPartly cloudy.10 mph16%30.02 "Hg10 mi
1:15 am54 °FPassing clouds.8 mph14%30.02 "Hg10 mi
12:55 am54 °FPassing clouds.6 mph14%30.02 "Hg10 mi
12:35 am55 °FPassing clouds.6 mph15%30.02 "Hg10 mi
12:15 am54 °FPassing clouds.9 mph21%30.02 "Hg10 mi
11:55 pm
Tue, Apr 16
52 °FPartly cloudy.7 mph15%30.02 "Hg10 mi
11:35 pm57 °FPassing clouds.6 mph12%30.02 "Hg10 mi
11:15 pm55 °FPassing clouds.8 mph14%30.02 "Hg10 mi
10:55 pm55 °FPartly cloudy.7 mph18%30.02 "Hg10 mi
10:35 pm57 °FPartly cloudy.5 mph13%30.02 "Hg10 mi
10:15 pm59 °FPassing clouds.5 mph14%30.02 "Hg10 mi
9:55 pm59 °FPassing clouds.7 mph13%30.01 "Hg10 mi
9:35 pm61 °FClear.No wind11%30.00 "Hg10 mi
9:15 pm61 °FClear.6 mph11%30.00 "Hg10 mi
Weather by CustomWeather, © 2024

See weather overview